createdAt,value
2023-04-08T00:00:59.181Z,31.25
2023-04-08T00:03:28.563Z,30.55
2023-04-08T00:05:57.667Z,33.38
2023-04-08T00:08:26.792Z,36.67
2023-04-08T00:10:55.776Z,36.85
2023-04-08T00:13:24.763Z,36.28
2023-04-08T00:15:53.742Z,37.38
2023-04-08T00:18:22.684Z,31.13
2023-04-08T00:20:51.744Z,35.33
2023-04-08T00:23:22.530Z,32.47
2023-04-08T00:25:53.234Z,32.13
2023-04-08T00:28:22.532Z,29.90
2023-04-08T00:30:52.880Z,31.23
2023-04-08T00:33:22.185Z,37.50
2023-04-08T00:35:51.249Z,34.72
2023-04-08T00:38:20.329Z,38.08
2023-04-08T00:40:49.408Z,33.72
2023-04-08T00:43:21.903Z,30.85
2023-04-08T00:45:51.089Z,35.10
2023-04-08T00:48:20.112Z,33.42
2023-04-08T00:50:49.192Z,37.13
2023-04-08T00:53:20.960Z,33.50
2023-04-08T00:55:49.912Z,33.58
2023-04-08T00:58:19.812Z,36.80
2023-04-08T01:01:14.114Z,31.52
2023-04-08T01:04:04.366Z,38.05
2023-04-08T01:07:11.863Z,36.22
2023-04-08T01:09:46.496Z,33.78
2023-04-08T01:12:22.539Z,30.00
2023-04-08T01:14:54.176Z,32.45
2023-04-08T01:17:24.437Z,32.10
2023-04-08T01:19:54.806Z,32.15
2023-04-08T01:22:38.915Z,35.35
2023-04-08T01:27:39.537Z,36.65
2023-04-08T01:30:10.855Z,36.22
2023-04-08T01:32:42.461Z,36.25
2023-04-08T01:35:12.934Z,33.30
2023-04-08T01:37:43.752Z,33.00
2023-04-08T01:40:13.776Z,39.25
2023-04-08T01:42:43.758Z,35.15
2023-04-08T01:45:13.891Z,30.15
2023-04-08T01:47:43.858Z,32.38
2023-04-08T01:50:13.903Z,33.90
2023-04-08T01:52:45.967Z,40.05
2023-04-08T01:55:15.174Z,35.90
2023-04-08T01:57:48.078Z,30.50
2023-04-08T02:00:20.227Z,33.60
2023-04-08T02:02:50.064Z,32.20
2023-04-08T02:05:19.437Z,34.58
2023-04-08T02:07:50.088Z,32.08
2023-04-08T02:10:19.081Z,30.85
2023-04-08T02:12:48.980Z,30.25
2023-04-08T02:15:18.559Z,32.95
2023-04-08T02:17:53.878Z,31.10
2023-04-08T02:20:45.368Z,28.17
2023-04-08T02:23:26.533Z,34.55
2023-04-08T02:25:58.279Z,30.67
2023-04-08T02:28:29.492Z,34.00
2023-04-08T02:31:02.030Z,30.58
2023-04-08T02:33:31.228Z,31.08
2023-04-08T02:36:01.538Z,29.98
2023-04-08T02:38:31.966Z,34.38
2023-04-08T02:41:01.222Z,30.90
2023-04-08T02:43:36.416Z,26.90
2023-04-08T02:46:05.517Z,30.75
2023-04-08T02:48:34.826Z,26.70
2023-04-08T02:51:04.078Z,30.50
2023-04-08T02:53:33.255Z,30.48
2023-04-08T02:56:02.440Z,34.45
2023-04-08T02:58:31.693Z,31.52
2023-04-08T03:01:00.682Z,35.75
2023-04-08T03:03:30.851Z,32.55
2023-04-08T03:06:00.558Z,42.22
2023-04-08T03:08:29.580Z,35.03
2023-04-08T03:10:58.649Z,35.35
2023-04-08T03:13:27.665Z,32.08
2023-04-08T03:15:57.291Z,29.92
2023-04-08T03:18:27.158Z,28.10
2023-04-08T03:20:56.310Z,29.45
2023-04-08T03:23:25.383Z,30.77
2023-04-08T03:25:54.339Z,31.88
2023-04-08T03:28:23.444Z,30.23
2023-04-08T03:30:52.639Z,31.23
2023-04-08T03:33:22.010Z,31.50
2023-04-08T03:35:51.007Z,30.08
2023-04-08T03:38:20.056Z,33.53
2023-04-08T03:40:48.988Z,36.30
2023-04-08T03:43:24.091Z,31.05
2023-04-08T03:45:53.135Z,29.33
2023-04-08T03:48:22.090Z,28.75
2023-04-08T03:50:51.324Z,29.80
2023-04-08T03:53:20.315Z,26.67
2023-04-08T03:55:54.162Z,30.80
2023-04-08T03:58:23.283Z,31.70
2023-04-08T04:00:52.709Z,29.35
2023-04-08T04:03:22.051Z,31.30
2023-04-08T04:05:51.208Z,28.35
2023-04-08T04:08:20.235Z,30.70
2023-04-08T04:10:49.277Z,31.38
2023-04-08T04:13:18.244Z,25.95
2023-04-08T04:15:47.293Z,34.63
2023-04-08T04:18:16.577Z,31.25
2023-04-08T04:20:45.933Z,29.25
2023-04-08T04:23:15.034Z,26.90
2023-04-08T04:25:44.304Z,32.00
2023-04-08T04:28:13.354Z,29.27
2023-04-08T04:30:42.469Z,30.13
2023-04-08T04:33:11.749Z,28.25
2023-04-08T04:35:42.161Z,28.67
2023-04-08T04:38:13.829Z,24.50
2023-04-08T04:40:43.033Z,25.17
2023-04-08T04:43:12.149Z,31.75
2023-04-08T04:45:41.448Z,27.60
2023-04-08T04:48:10.424Z,26.67
2023-04-08T04:50:39.427Z,25.75
2023-04-08T04:53:08.410Z,28.40
2023-04-08T04:55:39.186Z,27.85
2023-04-08T04:58:08.336Z,24.20
2023-04-08T05:00:37.569Z,26.08
2023-04-08T05:03:07.115Z,28.38
2023-04-08T05:05:36.106Z,24.48
2023-04-08T05:08:05.176Z,21.50
2023-04-08T05:10:34.231Z,24.15
2023-04-08T05:13:03.490Z,25.80
2023-04-08T05:15:32.561Z,19.35
2023-04-08T05:18:01.574Z,22.65
2023-04-08T05:20:30.966Z,24.98
2023-04-08T05:22:59.934Z,20.17
2023-04-08T05:25:28.977Z,20.75
2023-04-08T05:27:58.743Z,20.30
2023-04-08T05:30:28.306Z,24.05
2023-04-08T05:32:59.886Z,20.40
2023-04-08T05:35:30.162Z,20.45
2023-04-08T05:37:59.175Z,18.48
2023-04-08T05:40:28.373Z,19.70
2023-04-08T05:42:57.302Z,18.00
2023-04-08T05:45:26.294Z,19.42
2023-04-08T05:47:55.415Z,20.35
2023-04-08T05:50:24.556Z,19.80
2023-04-08T05:52:53.586Z,18.38
2023-04-08T05:55:22.648Z,22.15
2023-04-08T05:57:51.535Z,18.02
2023-04-08T06:00:21.267Z,20.55
2023-04-08T06:02:50.486Z,21.60
2023-04-08T06:05:20.382Z,22.48
2023-04-08T06:07:49.277Z,25.55
2023-04-08T06:10:18.408Z,23.48
2023-04-08T06:12:47.493Z,22.35
2023-04-08T06:15:17.943Z,23.88
2023-04-08T06:17:47.119Z,25.85
2023-04-08T06:20:16.077Z,22.40
2023-04-08T06:22:45.075Z,29.90
2023-04-08T06:25:14.150Z,26.30
2023-04-08T06:27:43.119Z,25.83
2023-04-08T06:30:12.503Z,25.48
2023-04-08T06:32:41.550Z,26.83
2023-04-08T06:35:11.246Z,26.52
2023-04-08T06:37:40.376Z,24.77
2023-04-08T06:40:10.001Z,26.80
2023-04-08T06:42:44.284Z,26.98
2023-04-08T06:45:13.491Z,24.17
2023-04-08T06:47:42.734Z,26.60
2023-04-08T06:50:14.630Z,24.98
2023-04-08T06:52:43.632Z,23.58
2023-04-08T06:55:12.750Z,24.25
2023-04-08T06:57:41.847Z,23.17
2023-04-08T07:00:11.656Z,21.95
2023-04-08T07:02:40.663Z,24.33
2023-04-08T07:05:09.987Z,21.60
2023-04-08T07:07:39.325Z,20.05
2023-04-08T07:10:10.789Z,21.08
2023-04-08T07:12:40.117Z,19.45
2023-04-08T07:15:09.934Z,24.17
2023-04-08T07:17:39.036Z,20.13
2023-04-08T07:20:09.081Z,24.70
2023-04-08T07:22:38.065Z,22.65
2023-04-08T07:25:07.400Z,25.85
2023-04-08T07:27:37.226Z,22.58
2023-04-08T07:30:07.058Z,24.92
2023-04-08T07:32:36.616Z,23.80
2023-04-08T07:35:05.881Z,24.25
2023-04-08T07:37:34.950Z,24.17
2023-04-08T07:40:03.971Z,23.52
2023-04-08T07:42:33.236Z,24.42
2023-04-08T07:45:02.232Z,22.17
2023-04-08T07:47:31.299Z,22.73
2023-04-08T07:50:00.313Z,26.13
2023-04-08T07:52:29.229Z,27.15
2023-04-08T07:54:58.284Z,26.63
2023-04-08T07:57:27.936Z,24.90
2023-04-08T07:59:57.433Z,31.27
2023-04-08T08:02:26.644Z,26.73
2023-04-08T08:04:55.734Z,32.40
2023-04-08T08:07:24.749Z,43.30
2023-04-08T08:09:53.726Z,34.92
2023-04-08T08:12:22.666Z,29.98
2023-04-08T08:14:52.142Z,37.60
2023-04-08T08:17:21.211Z,36.92
2023-04-08T08:19:50.193Z,35.15
2023-04-08T08:22:19.317Z,34.92
2023-04-08T08:24:48.612Z,36.88
2023-04-08T08:27:17.603Z,33.45
2023-04-08T08:29:46.787Z,32.65
2023-04-08T08:32:15.949Z,29.20
2023-04-08T08:34:44.890Z,34.80
2023-04-08T08:37:13.861Z,34.70
2023-04-08T08:39:42.825Z,25.52
2023-04-08T08:42:25.018Z,19.90
2023-04-08T08:44:54.229Z,28.77
2023-04-08T08:47:23.214Z,21.13
2023-04-08T08:49:52.482Z,21.20
2023-04-08T08:52:21.874Z,20.70
2023-04-08T08:54:58.469Z,24.60
2023-04-08T08:57:28.379Z,26.02
2023-04-08T08:59:57.845Z,19.95
2023-04-08T09:02:32.483Z,22.50
2023-04-08T09:05:06.684Z,20.48
2023-04-08T09:07:41.834Z,20.65
2023-04-08T09:10:11.815Z,18.80
2023-04-08T09:12:57.081Z,21.75
2023-04-08T09:15:26.046Z,22.48
2023-04-08T09:17:55.671Z,19.30
2023-04-08T09:20:25.260Z,21.15
2023-04-08T09:22:58.874Z,25.70
2023-04-08T09:25:33.818Z,21.60
2023-04-08T09:28:04.317Z,31.75
2023-04-08T09:30:34.664Z,25.10
2023-04-08T09:33:08.305Z,21.23
2023-04-08T09:35:37.818Z,28.27
2023-04-08T09:38:06.977Z,25.42
2023-04-08T09:40:38.005Z,25.95
2023-04-08T09:43:10.103Z,28.55
2023-04-08T09:45:43.038Z,26.23
2023-04-08T09:48:19.624Z,27.38
2023-04-08T09:50:54.295Z,27.70
2023-04-08T09:53:35.861Z,33.00
2023-04-08T09:56:11.758Z,35.00
2023-04-08T09:58:53.396Z,29.65
2023-04-08T10:01:39.578Z,31.90
2023-04-08T10:04:13.825Z,37.13
2023-04-08T10:06:43.612Z,31.67
2023-04-08T10:09:12.901Z,37.95
2023-04-08T10:11:42.346Z,32.47
2023-04-08T10:14:12.639Z,35.58
2023-04-08T10:16:41.699Z,31.15
2023-04-08T10:19:50.271Z,35.40
2023-04-08T10:22:31.899Z,39.13
2023-04-08T10:25:18.996Z,36.30
2023-04-08T10:27:49.283Z,35.83
2023-04-08T10:30:30.304Z,33.53
2023-04-08T10:33:05.907Z,33.72
2023-04-08T10:35:38.293Z,38.90
2023-04-08T10:38:08.508Z,34.67
2023-04-08T10:40:42.882Z,36.63
2023-04-08T10:43:13.919Z,37.35
2023-04-08T10:45:45.241Z,37.30
2023-04-08T10:48:26.256Z,40.53
2023-04-08T10:51:08.031Z,32.80
2023-04-08T10:53:39.024Z,39.25
2023-04-08T10:56:18.210Z,34.13
2023-04-08T10:58:54.454Z,34.83
2023-04-08T11:01:24.048Z,35.58
2023-04-08T11:03:53.596Z,30.90
2023-04-08T11:06:23.271Z,39.20
2023-04-08T11:08:52.182Z,37.40
2023-04-08T11:11:22.627Z,33.63
2023-04-08T11:13:53.924Z,33.30
2023-04-08T11:16:27.185Z,37.72
2023-04-08T11:18:56.841Z,37.90
2023-04-08T11:21:27.034Z,36.10
2023-04-08T11:23:56.010Z,35.47
2023-04-08T11:26:26.875Z,45.92
2023-04-08T11:28:57.714Z,59.33
2023-04-08T11:31:27.028Z,49.58
2023-04-08T11:33:57.981Z,46.10
2023-04-08T11:36:28.459Z,39.35
2023-04-08T11:38:57.696Z,40.08
2023-04-08T11:41:27.828Z,41.10
2023-04-08T11:43:58.433Z,42.15
2023-04-08T11:46:27.742Z,42.42
2023-04-08T11:49:02.323Z,35.50
2023-04-08T11:51:31.538Z,37.40
2023-04-08T11:54:00.574Z,41.58
2023-04-08T11:56:31.745Z,40.47
2023-04-08T11:59:00.670Z,43.78
2023-04-08T12:01:29.896Z,36.92
2023-04-08T12:04:03.638Z,42.90
2023-04-08T12:06:32.929Z,42.20
2023-04-08T12:09:02.321Z,41.50
2023-04-08T12:11:31.488Z,43.65
2023-04-08T12:14:00.461Z,37.20
2023-04-08T12:16:29.570Z,45.75
2023-04-08T12:18:58.688Z,45.67
2023-04-08T12:21:29.101Z,37.28
2023-04-08T12:23:58.128Z,38.25
2023-04-08T12:26:28.221Z,43.20
2023-04-08T12:28:57.180Z,40.63
2023-04-08T12:31:26.277Z,45.55
2023-04-08T12:33:55.344Z,43.15
2023-04-08T12:36:24.416Z,45.55
2023-04-08T12:38:53.460Z,42.58
2023-04-08T12:41:23.002Z,46.40
2023-04-08T12:43:52.142Z,51.15
2023-04-08T12:46:21.235Z,42.33
2023-04-08T12:48:59.953Z,39.17
2023-04-08T12:51:33.540Z,45.63
2023-04-08T12:54:03.171Z,42.15
2023-04-08T12:56:33.628Z,44.97
2023-04-08T12:59:03.019Z,44.28
2023-04-08T13:01:32.191Z,44.70
2023-04-08T13:04:01.512Z,52.17
2023-04-08T13:06:30.530Z,46.90
2023-04-08T13:08:59.686Z,55.45
2023-04-08T13:11:28.685Z,51.35
2023-04-08T13:13:57.815Z,53.35
2023-04-08T13:16:26.937Z,53.88
2023-04-08T13:18:58.415Z,50.22
2023-04-08T13:21:27.963Z,48.38
2023-04-08T13:23:59.407Z,55.65
2023-04-08T13:26:28.635Z,58.60
2023-04-08T13:29:00.977Z,52.53
2023-04-08T13:31:30.280Z,61.55
2023-04-08T13:33:59.359Z,58.28
2023-04-08T13:36:29.828Z,63.67
2023-04-08T13:38:58.866Z,63.00
2023-04-08T13:41:29.289Z,61.30
2023-04-08T13:43:58.369Z,55.97
2023-04-08T13:46:27.451Z,53.47
2023-04-08T13:48:56.488Z,52.80
2023-04-08T13:51:25.591Z,48.55
2023-04-08T13:53:54.561Z,53.25
2023-04-08T13:56:23.539Z,57.63
2023-04-08T13:58:57.230Z,58.25
2023-04-08T14:01:26.980Z,55.70
2023-04-08T14:03:56.039Z,55.50
2023-04-08T14:06:25.062Z,65.07
2023-04-08T14:08:54.572Z,54.55
2023-04-08T14:11:23.659Z,57.85
2023-04-08T14:13:52.697Z,58.53
2023-04-08T14:16:21.846Z,53.63
2023-04-08T14:18:51.863Z,56.60
2023-04-08T14:21:21.003Z,58.38
2023-04-08T14:23:49.955Z,50.92
2023-04-08T14:26:18.938Z,48.45
2023-04-08T14:28:49.018Z,45.65
2023-04-08T14:31:18.793Z,52.00
2023-04-08T14:33:48.153Z,45.05
2023-04-08T14:36:17.966Z,49.67
2023-04-08T14:38:47.180Z,50.40
2023-04-08T14:41:16.102Z,48.85
2023-04-08T14:43:45.138Z,48.22
2023-04-08T14:46:14.211Z,43.90
2023-04-08T14:48:43.287Z,46.70
2023-04-08T14:51:12.265Z,48.15
2023-04-08T14:53:41.304Z,44.55
2023-04-08T14:56:10.679Z,51.58
2023-04-08T14:58:40.741Z,45.90
2023-04-08T15:01:09.735Z,45.92
2023-04-08T15:03:38.969Z,43.33
2023-04-08T15:06:08.373Z,45.70
2023-04-08T15:08:37.687Z,46.92
2023-04-08T15:11:06.769Z,48.45
2023-04-08T15:13:37.252Z,46.60
2023-04-08T15:16:07.143Z,43.13
2023-04-08T15:18:36.239Z,50.58
2023-04-08T15:21:05.376Z,43.85
2023-04-08T15:23:34.421Z,46.28
2023-04-08T15:26:03.455Z,39.55
2023-04-08T15:28:33.268Z,51.33
2023-04-08T15:31:02.865Z,42.28
2023-04-08T15:33:31.927Z,39.08
2023-04-08T15:36:05.137Z,41.88
2023-04-08T15:38:34.864Z,43.83
2023-04-08T15:41:03.923Z,41.60
2023-04-08T15:43:32.931Z,41.25
2023-04-08T15:46:02.052Z,45.20
2023-04-08T15:48:30.967Z,39.85
2023-04-08T15:51:00.014Z,38.42
2023-04-08T15:53:28.990Z,41.38
2023-04-08T15:55:57.894Z,35.45
2023-04-08T15:58:27.060Z,33.70
2023-04-08T16:00:56.990Z,41.25
2023-04-08T16:03:26.872Z,34.03
2023-04-08T16:05:55.958Z,43.35
2023-04-08T16:08:24.939Z,35.10
2023-04-08T16:10:54.280Z,36.85
2023-04-08T16:13:23.321Z,39.10
2023-04-08T16:15:52.323Z,36.38
2023-04-08T16:18:21.321Z,41.63
2023-04-08T16:20:51.115Z,44.63
2023-04-08T16:23:20.229Z,42.20
2023-04-08T16:25:49.922Z,35.42
2023-04-08T16:28:21.890Z,36.83
2023-04-08T16:30:50.968Z,38.70
2023-04-08T16:33:19.989Z,31.42
2023-04-08T16:35:50.473Z,39.67
2023-04-08T16:38:19.614Z,37.28
2023-04-08T16:40:48.857Z,40.55
2023-04-08T16:43:17.851Z,36.55
2023-04-08T16:45:47.120Z,37.40
2023-04-08T16:48:16.330Z,38.67
2023-04-08T16:50:45.373Z,39.15
2023-04-08T16:53:14.487Z,36.72
2023-04-08T16:55:43.482Z,37.25
2023-04-08T16:58:12.746Z,38.17
2023-04-08T17:00:41.721Z,35.90
2023-04-08T17:03:10.940Z,41.70
2023-04-08T17:05:40.305Z,37.97
2023-04-08T17:08:09.442Z,46.42
2023-04-08T17:10:38.591Z,44.83
2023-04-08T17:13:07.920Z,43.53
2023-04-08T17:15:39.797Z,39.03
2023-04-08T17:18:08.736Z,35.40
2023-04-08T17:20:38.682Z,42.88
2023-04-08T17:23:08.203Z,41.30
2023-04-08T17:25:37.282Z,37.42
2023-04-08T17:28:06.321Z,35.92
2023-04-08T17:30:35.618Z,38.85
2023-04-08T17:33:04.825Z,35.25
2023-04-08T17:35:33.907Z,46.40
2023-04-08T17:38:04.307Z,39.85
2023-04-08T17:40:33.385Z,37.22
2023-04-08T17:43:02.908Z,37.30
2023-04-08T17:45:32.295Z,39.55
2023-04-08T17:48:01.366Z,36.83
2023-04-08T17:50:30.392Z,38.90
2023-04-08T17:52:59.484Z,39.22
2023-04-08T17:55:29.031Z,37.13
2023-04-08T17:57:57.977Z,40.17
2023-04-08T18:00:27.740Z,41.40
2023-04-08T18:02:57.360Z,38.55
2023-04-08T18:05:26.539Z,37.78
2023-04-08T18:07:55.601Z,42.45
2023-04-08T18:10:25.754Z,38.67
2023-04-08T18:13:04.017Z,36.55
2023-04-08T18:15:40.386Z,37.03
2023-04-08T18:18:09.410Z,47.58
2023-04-08T18:20:38.837Z,41.08
2023-04-08T18:23:08.157Z,44.88
2023-04-08T18:25:37.131Z,47.45
2023-04-08T18:28:06.267Z,40.88
2023-04-08T18:30:35.330Z,43.42
2023-04-08T18:33:04.394Z,41.30
2023-04-08T18:35:33.469Z,42.35
2023-04-08T18:38:02.525Z,44.10
2023-04-08T18:40:32.378Z,43.75
2023-04-08T18:43:03.266Z,46.17
2023-04-08T18:45:32.666Z,47.75
2023-04-08T18:48:01.796Z,45.80
2023-04-08T18:50:30.802Z,44.03
2023-04-08T18:52:59.867Z,42.42
2023-04-08T18:55:29.149Z,40.58
2023-04-08T18:57:58.412Z,46.80
2023-04-08T19:00:27.455Z,46.33
2023-04-08T19:02:56.816Z,41.15
2023-04-08T19:05:25.932Z,39.85
2023-04-08T19:07:54.973Z,42.85
2023-04-08T19:10:25.807Z,42.45
2023-04-08T19:12:54.769Z,39.05
2023-04-08T19:15:23.843Z,43.00
2023-04-08T19:17:52.901Z,33.92
2023-04-08T19:20:22.397Z,33.30
2023-04-08T19:22:51.595Z,33.92
2023-04-08T19:25:21.118Z,34.22
2023-04-08T19:27:50.048Z,33.30
2023-04-08T19:30:19.117Z,32.42
2023-04-08T19:32:48.234Z,36.20
2023-04-08T19:35:17.382Z,35.58
2023-04-08T19:37:46.560Z,38.10
2023-04-08T19:40:15.538Z,39.83
2023-04-08T19:42:46.421Z,33.67
2023-04-08T19:45:15.360Z,34.03
2023-04-08T19:47:45.304Z,29.60
2023-04-08T19:50:14.680Z,30.23
2023-04-08T19:52:43.729Z,33.35
2023-04-08T19:55:12.886Z,32.75
2023-04-08T19:57:42.258Z,33.30
2023-04-08T20:00:14.009Z,25.75
2023-04-08T20:02:43.445Z,30.20
2023-04-08T20:05:17.573Z,33.03
2023-04-08T20:07:46.591Z,31.27
2023-04-08T20:10:15.903Z,30.27
2023-04-08T20:12:44.962Z,27.70
2023-04-08T20:15:23.342Z,25.27
2023-04-08T20:17:53.864Z,26.83
2023-04-08T20:20:23.933Z,27.67
2023-04-08T20:22:52.941Z,27.77
2023-04-08T20:25:25.920Z,26.77
2023-04-08T20:27:54.955Z,28.75
2023-04-08T20:30:24.092Z,24.85
2023-04-08T20:32:53.351Z,26.35
2023-04-08T20:35:23.168Z,24.17
2023-04-08T20:37:52.345Z,27.13
2023-04-08T20:40:21.543Z,25.67
2023-04-08T20:42:50.582Z,24.92
2023-04-08T20:45:19.652Z,26.83
2023-04-08T20:47:48.834Z,26.23
2023-04-08T20:50:18.062Z,28.60
2023-04-08T20:52:48.712Z,25.23
2023-04-08T20:55:17.710Z,23.00
2023-04-08T20:57:49.038Z,24.40
2023-04-08T21:00:18.520Z,25.38
2023-04-08T21:02:48.777Z,23.80
2023-04-08T21:05:18.023Z,21.83
2023-04-08T21:07:47.134Z,21.17
2023-04-08T21:10:16.148Z,21.83
2023-04-08T21:12:46.295Z,19.42
2023-04-08T21:15:15.353Z,21.40
2023-04-08T21:17:44.402Z,22.55
2023-04-08T21:20:13.932Z,25.25
2023-04-08T21:22:42.889Z,22.25
2023-04-08T21:25:12.509Z,22.85
2023-04-08T21:27:44.788Z,21.50
2023-04-08T21:30:13.976Z,23.10
2023-04-08T21:32:42.987Z,23.27
2023-04-08T21:35:12.251Z,22.60
2023-04-08T21:37:41.503Z,26.00
2023-04-08T21:40:10.953Z,20.35
2023-04-08T21:42:40.225Z,23.20
2023-04-08T21:45:09.741Z,20.10
2023-04-08T21:47:38.776Z,22.85
2023-04-08T21:50:08.985Z,19.70
2023-04-08T21:52:38.446Z,18.20
2023-04-08T21:55:08.459Z,20.13
2023-04-08T21:57:37.486Z,21.92
2023-04-08T22:00:14.340Z,17.20
2023-04-08T22:02:43.946Z,19.10
2023-04-08T22:05:13.403Z,20.95
2023-04-08T22:07:42.817Z,18.60
2023-04-08T22:10:12.276Z,17.25
2023-04-08T22:12:41.308Z,16.98
2023-04-08T22:15:11.024Z,17.70
2023-04-08T22:17:39.997Z,18.48
2023-04-08T22:20:09.516Z,18.65
2023-04-08T22:22:38.503Z,21.45
2023-04-08T22:25:08.111Z,24.15
2023-04-08T22:27:37.686Z,19.20
2023-04-08T22:30:07.526Z,20.48
2023-04-08T22:32:36.526Z,17.02
2023-04-08T22:35:05.932Z,19.13
2023-04-08T22:37:34.994Z,17.98
2023-04-08T22:40:04.951Z,16.85
2023-04-08T22:42:33.960Z,21.13
2023-04-08T22:45:03.148Z,17.05
2023-04-08T22:47:32.531Z,17.63
2023-04-08T22:50:01.539Z,18.45
2023-04-08T22:52:30.577Z,18.88
2023-04-08T22:54:59.628Z,18.45
2023-04-08T22:57:28.686Z,17.70
2023-04-08T22:59:57.745Z,17.70
2023-04-08T23:02:26.877Z,17.48
2023-04-08T23:04:59.408Z,15.75
2023-04-08T23:07:28.400Z,15.60
2023-04-08T23:09:57.541Z,20.00
2023-04-08T23:12:26.753Z,26.35
2023-04-08T23:14:56.090Z,19.02
2023-04-08T23:17:25.214Z,14.73
2023-04-08T23:19:54.270Z,18.10
2023-04-08T23:22:23.255Z,17.00
2023-04-08T23:24:52.257Z,16.05
2023-04-08T23:27:21.537Z,16.60
2023-04-08T23:29:50.530Z,16.02
2023-04-08T23:32:19.499Z,17.98
2023-04-08T23:34:48.429Z,16.30
2023-04-08T23:37:17.594Z,13.57
2023-04-08T23:39:46.560Z,15.85
2023-04-08T23:42:15.519Z,15.00
2023-04-08T23:44:44.541Z,15.40
2023-04-08T23:47:13.509Z,14.82
2023-04-08T23:49:42.548Z,13.13
2023-04-08T23:52:11.506Z,14.02
2023-04-08T23:54:41.541Z,14.02
2023-04-08T23:57:10.782Z,11.15
2023-04-08T23:59:39.790Z,14.48
